Time;durP1;ratioP1;P1;durP2;ratioP2;P2;SDS_P1;SDS_P2;PMS_P1;PMS_P2;Temp;Humidity;BMP_temperature;BMP_pressure;BME280_temperature;BME280_humidity;BME280_pressure;Samples;Min_cycle;Max_cycle;Signal;HPM_P1;HPM_P2
2022/06/01 00:00:34;;;;;;;25.25;12.00;;;;;;;;;;5054553;28;20071;-38
2022/06/01 00:02:59;;;;;;;19.75;10.80;;;;;;;;;;5055067;28;20361;-38
2022/06/01 00:05:25;;;;;;;22.45;11.55;;;;;;;;;;5053372;28;20435;-38
2022/06/01 00:07:50;;;;;;;21.05;11.55;;;;;;;;;;5055142;28;20044;-38
2022/06/01 00:10:16;;;;;;;27.77;13.10;;;;;;;;;;5054259;28;20100;-38
2022/06/01 00:12:41;;;;;;;21.83;11.05;;;;;;;;;;5053703;28;20020;-41
2022/06/01 00:15:07;;;;;;;24.27;11.43;;;;;;;;;;5049409;28;20036;-38
2022/06/01 00:17:33;;;;;;;21.80;11.60;;;;;;;;;;5034679;28;20131;-38
2022/06/01 00:19:59;;;;;;;18.90;11.02;;;;;;;;;;5033939;28;20029;-38
2022/06/01 00:22:24;;;;;;;21.08;11.63;;;;;;;;;;5034641;28;20041;-38
2022/06/01 00:24:49;;;;;;;22.58;11.35;;;;;;;;;;5033605;28;20013;-38
2022/06/01 00:27:16;;;;;;;26.90;13.15;;;;;;;;;;5034780;28;20028;-38
2022/06/01 00:29:42;;;;;;;23.95;12.45;;;;;;;;;;5034128;28;20025;-40
2022/06/01 00:32:08;;;;;;;22.50;12.35;;;;;;;;;;5033056;28;20044;-37
2022/06/01 00:34:34;;;;;;;18.50;11.38;;;;;;;;;;5033362;28;20453;-37
2022/06/01 00:36:59;;;;;;;25.35;12.45;;;;;;;;;;5034292;28;20045;-38
2022/06/01 00:39:25;;;;;;;16.95;10.10;;;;;;;;;;5034259;28;20028;-40
2022/06/01 00:41:51;;;;;;;18.05;10.75;;;;;;;;;;5032628;28;20128;-37
2022/06/01 00:44:16;;;;;;;19.27;10.63;;;;;;;;;;5032985;28;20034;-37
2022/06/01 00:46:41;;;;;;;18.08;10.90;;;;;;;;;;5034171;28;20021;-39
2022/06/01 00:49:12;;;;;;;18.58;10.32;;;;;;;;;;5032607;28;20022;-38
2022/06/01 00:51:38;;;;;;;23.02;10.35;;;;;;;;;;5032565;28;20076;-37
2022/06/01 00:54:04;;;;;;;21.08;10.85;;;;;;;;;;5032883;28;20460;-37
2022/06/01 00:56:34;;;;;;;17.95;10.43;;;;;;;;;;5034268;28;20029;-37
2022/06/01 00:59:01;;;;;;;17.90;10.30;;;;;;;;;;5032451;28;20159;-37
2022/06/01 01:01:27;;;;;;;20.48;11.50;;;;;;;;;;5033703;28;20030;-38
2022/06/01 01:03:58;;;;;;;18.50;10.38;;;;;;;;;;5032609;28;20033;-37
2022/06/01 01:06:35;;;;;;;19.30;10.93;;;;;;;;;;5034007;28;20130;-37
2022/06/01 01:09:00;;;;;;;18.30;9.60;;;;;;;;;;5032317;28;20587;-37
2022/06/01 01:11:31;;;;;;;21.90;10.45;;;;;;;;;;5033603;28;20106;-37
2022/06/01 01:13:57;;;;;;;15.07;9.70;;;;;;;;;;5033809;28;20052;-37
2022/06/01 01:16:22;;;;;;;19.50;10.02;;;;;;;;;;5033594;28;20022;-37
2022/06/01 01:18:51;;;;;;;19.63;10.35;;;;;;;;;;5031942;28;20022;-40
2022/06/01 01:21:31;;;;;;;19.15;11.18;;;;;;;;;;5033277;28;20056;-37
2022/06/01 01:24:15;;;;;;;19.02;11.95;;;;;;;;;;5033522;28;20171;-37
2022/06/01 01:26:42;;;;;;;17.25;10.15;;;;;;;;;;5032803;28;20029;-37
2022/06/01 01:29:09;;;;;;;17.08;9.75;;;;;;;;;;5031525;28;20018;-36
2022/06/01 01:31:35;;;;;;;20.33;11.20;;;;;;;;;;5033272;28;20021;-36
2022/06/01 01:34:00;;;;;;;16.17;10.57;;;;;;;;;;5033657;28;20025;-37
2022/06/01 01:36:28;;;;;;;22.23;11.45;;;;;;;;;;5032092;28;20025;-37
2022/06/01 01:38:54;;;;;;;26.98;12.32;;;;;;;;;;5031817;28;20052;-37
2022/06/01 01:41:31;;;;;;;21.30;11.68;;;;;;;;;;5032698;28;20084;-36
2022/06/01 01:43:57;;;;;;;21.10;12.40;;;;;;;;;;5031640;28;20468;-39
2022/06/01 01:46:23;;;;;;;25.20;11.98;;;;;;;;;;5031949;28;20025;-41
2022/06/01 01:48:48;;;;;;;19.92;12.07;;;;;;;;;;5033081;28;20126;-39
2022/06/01 01:51:18;;;;;;;19.38;11.23;;;;;;;;;;5031584;28;20021;-37
2022/06/01 01:53:44;;;;;;;23.13;12.82;;;;;;;;;;5031824;28;20036;-37
2022/06/01 01:56:14;;;;;;;25.58;12.85;;;;;;;;;;5031393;28;20025;-39
2022/06/01 01:58:51;;;;;;;24.00;12.57;;;;;;;;;;5033046;28;20021;-38
2022/06/01 02:01:24;;;;;;;23.33;12.90;;;;;;;;;;5032701;28;20108;-37
2022/06/01 02:03:52;;;;;;;22.92;13.13;;;;;;;;;;5031637;28;20110;-39
2022/06/01 02:06:26;;;;;;;25.25;12.80;;;;;;;;;;5032729;28;20033;-37
2022/06/01 02:08:51;;;;;;;22.45;12.30;;;;;;;;;;5032289;28;20024;-37
2022/06/01 02:14:09;;;;;;;27.92;14.52;;;;;;;;;;5032612;28;20036;-39
2022/06/01 02:16:36;;;;;;;43.63;19.08;;;;;;;;;;5032782;28;20022;-39
2022/06/01 02:19:04;;;;;;;40.55;19.77;;;;;;;;;;5030991;28;20433;-37
2022/06/01 02:21:29;;;;;;;36.22;18.38;;;;;;;;;;5032111;28;20026;-36
2022/06/01 02:23:56;;;;;;;48.80;23.15;;;;;;;;;;5032665;28;20028;-40
2022/06/01 02:26:22;;;;;;;40.72;18.52;;;;;;;;;;5031438;28;20021;-36
2022/06/01 02:28:49;;;;;;;41.67;18.98;;;;;;;;;;5031087;28;20370;-38
2022/06/01 02:31:16;;;;;;;37.15;17.88;;;;;;;;;;5031937;28;20030;-37
2022/06/01 02:33:43;;;;;;;36.60;17.83;;;;;;;;;;5046872;28;20438;-37
2022/06/01 02:36:09;;;;;;;32.50;16.98;;;;;;;;;;5052127;28;20056;-37
2022/06/01 02:38:39;;;;;;;41.65;20.95;;;;;;;;;;5050796;28;20057;-37
2022/06/01 02:41:04;;;;;;;44.58;21.13;;;;;;;;;;5051640;28;20023;-38
2022/06/01 02:43:30;;;;;;;40.85;19.45;;;;;;;;;;5052193;28;20033;-40
2022/06/01 02:45:56;;;;;;;44.38;21.10;;;;;;;;;;5039476;28;20013;-37
2022/06/01 02:48:21;;;;;;;45.67;21.35;;;;;;;;;;5034484;28;20025;-38
2022/06/01 02:50:46;;;;;;;33.70;17.50;;;;;;;;;;5050138;28;20379;-37
2022/06/01 02:53:12;;;;;;;43.35;21.33;;;;;;;;;;5051253;28;20028;-37
2022/06/01 02:55:37;;;;;;;47.42;21.00;;;;;;;;;;5052019;28;20029;-37
2022/06/01 02:58:03;;;;;;;48.50;23.20;;;;;;;;;;5051053;28;20430;-37
2022/06/01 03:00:30;;;;;;;47.80;23.45;;;;;;;;;;5050238;28;20030;-38
2022/06/01 03:02:57;;;;;;;43.90;21.90;;;;;;;;;;5050897;28;20373;-36
2022/06/01 03:05:24;;;;;;;49.53;22.45;;;;;;;;;;5051938;28;20028;-37
2022/06/01 03:07:50;;;;;;;52.72;23.27;;;;;;;;;;5051953;28;20352;-36
2022/06/01 03:10:15;;;;;;;52.67;25.08;;;;;;;;;;5051771;28;20025;-38
2022/06/01 03:12:40;;;;;;;47.92;23.05;;;;;;;;;;5032936;28;20033;-36
2022/06/01 03:15:07;;;;;;;48.25;23.55;;;;;;;;;;5027904;28;20034;-36
2022/06/01 03:17:33;;;;;;;55.45;24.02;;;;;;;;;;5049629;28;20031;-37
2022/06/01 03:19:59;;;;;;;49.55;24.17;;;;;;;;;;5049942;28;20104;-37
2022/06/01 03:22:24;;;;;;;64.63;27.13;;;;;;;;;;5050732;28;20555;-38
2022/06/01 03:24:50;;;;;;;57.95;25.80;;;;;;;;;;5050683;28;20495;-37
2022/06/01 03:27:15;;;;;;;57.33;27.25;;;;;;;;;;5050575;28;20017;-37
2022/06/01 03:29:40;;;;;;;58.97;26.25;;;;;;;;;;5051331;28;20028;-37
2022/06/01 03:32:06;;;;;;;59.40;28.02;;;;;;;;;;5050248;28;20124;-39
2022/06/01 03:34:32;;;;;;;62.58;27.40;;;;;;;;;;5051827;28;20092;-38
2022/06/01 03:36:57;;;;;;;57.55;26.35;;;;;;;;;;5050632;28;20512;-38
2022/06/01 03:39:22;;;;;;;55.00;26.65;;;;;;;;;;5051974;28;20017;-38
2022/06/01 03:41:48;;;;;;;56.13;27.15;;;;;;;;;;5033374;28;20059;-38
2022/06/01 03:47:04;;;;;;;64.97;29.75;;;;;;;;;;5034242;28;20060;-38
2022/06/01 03:49:30;;;;;;;68.07;29.52;;;;;;;;;;5052326;28;20025;-38
2022/06/01 03:51:56;;;;;;;64.40;29.38;;;;;;;;;;5055221;28;20384;-39
2022/06/01 03:54:22;;;;;;;58.13;26.70;;;;;;;;;;5055402;28;20017;-38
2022/06/01 03:56:47;;;;;;;57.60;25.20;;;;;;;;;;5053735;28;20028;-38
2022/06/01 03:59:12;;;;;;;67.78;30.83;;;;;;;;;;5054818;28;20418;-38
2022/06/01 04:01:38;;;;;;;65.60;30.17;;;;;;;;;;5054725;28;20021;-38
2022/06/01 04:04:04;;;;;;;54.53;26.52;;;;;;;;;;5054894;28;20123;-38
2022/06/01 04:06:30;;;;;;;69.47;31.75;;;;;;;;;;5055297;28;20102;-38
2022/06/01 04:08:56;;;;;;;66.90;32.22;;;;;;;;;;5054570;28;20486;-41
2022/06/01 04:11:21;;;;;;;76.85;33.15;;;;;;;;;;5045573;28;20021;-38
2022/06/01 04:13:46;;;;;;;64.85;29.60;;;;;;;;;;5045797;28;20026;-38
2022/06/01 04:16:12;;;;;;;78.65;33.97;;;;;;;;;;5035543;28;20054;-39
2022/06/01 04:18:37;;;;;;;70.55;32.55;;;;;;;;;;5054523;28;20100;-38
2022/06/01 04:21:03;;;;;;;65.70;29.30;;;;;;;;;;5054356;28;20401;-38
2022/06/01 04:23:28;;;;;;;68.60;33.17;;;;;;;;;;5054538;28;20387;-38
2022/06/01 04:25:54;;;;;;;76.63;33.65;;;;;;;;;;5053802;28;20436;-41
2022/06/01 04:28:19;;;;;;;72.47;32.65;;;;;;;;;;5054348;28;20078;-38
2022/06/01 04:30:45;;;;;;;83.75;35.97;;;;;;;;;;5053857;28;20013;-40
2022/06/01 04:33:10;;;;;;;85.57;37.28;;;;;;;;;;5054197;28;20035;-37
2022/06/01 04:35:35;;;;;;;83.75;36.47;;;;;;;;;;5053394;28;20430;-37
2022/06/01 04:38:13;;;;;;;80.40;35.25;;;;;;;;;;5054558;28;20025;-38
2022/06/01 04:40:40;;;;;;;92.53;38.60;;;;;;;;;;5052630;28;20383;-37
2022/06/01 04:43:05;;;;;;;83.28;36.90;;;;;;;;;;5052758;28;20526;-38
2022/06/01 04:45:31;;;;;;;86.10;35.58;;;;;;;;;;5041143;28;20100;-38
2022/06/01 04:47:56;;;;;;;77.68;36.42;;;;;;;;;;5034492;28;20096;-37
2022/06/01 04:50:21;;;;;;;87.00;38.25;;;;;;;;;;5032240;28;20030;-37
2022/06/01 04:52:47;;;;;;;74.03;33.67;;;;;;;;;;5033096;28;20021;-37
2022/06/01 04:55:12;;;;;;;72.68;32.63;;;;;;;;;;5032992;28;20079;-38
2022/06/01 04:57:39;;;;;;;76.45;34.75;;;;;;;;;;5032694;28;20022;-38
2022/06/01 05:00:05;;;;;;;76.43;36.92;;;;;;;;;;5032109;28;20024;-38
2022/06/01 05:02:31;;;;;;;80.97;36.65;;;;;;;;;;5032512;28;20046;-37
2022/06/01 05:04:56;;;;;;;80.68;38.42;;;;;;;;;;5034136;28;20033;-39
2022/06/01 05:07:21;;;;;;;78.43;36.75;;;;;;;;;;5032775;28;20021;-39
2022/06/01 05:09:47;;;;;;;81.30;36.60;;;;;;;;;;5033564;28;20411;-39
2022/06/01 05:12:12;;;;;;;78.40;37.58;;;;;;;;;;5033830;28;20052;-39
2022/06/01 05:14:37;;;;;;;78.95;37.28;;;;;;;;;;5032341;28;20457;-40
2022/06/01 05:17:03;;;;;;;80.40;37.33;;;;;;;;;;5018779;28;20542;-38
2022/06/01 05:19:28;;;;;;;82.35;37.75;;;;;;;;;;5032111;28;20116;-39
2022/06/01 05:21:54;;;;;;;79.70;35.80;;;;;;;;;;5031340;28;20040;-39
2022/06/01 05:24:19;;;;;;;82.30;38.65;;;;;;;;;;5032516;28;20013;-39
2022/06/01 05:26:44;;;;;;;84.13;36.25;;;;;;;;;;5032306;28;20044;-39
2022/06/01 05:29:10;;;;;;;94.70;39.92;;;;;;;;;;5033166;28;20389;-39
2022/06/01 05:31:35;;;;;;;89.65;40.38;;;;;;;;;;5031859;28;20119;-38
2022/06/01 05:34:01;;;;;;;94.45;40.10;;;;;;;;;;5032201;28;20719;-39
2022/06/01 05:36:26;;;;;;;91.35;41.70;;;;;;;;;;5033995;28;20027;-38
2022/06/01 05:38:52;;;;;;;85.43;40.78;;;;;;;;;;5024305;28;20029;-39
2022/06/01 05:41:17;;;;;;;86.68;40.70;;;;;;;;;;5035235;28;20022;-38
2022/06/01 05:43:43;;;;;;;82.93;38.80;;;;;;;;;;5028549;28;20042;-38
2022/06/01 05:46:08;;;;;;;74.72;36.20;;;;;;;;;;5036886;28;20025;-38
2022/06/01 05:48:34;;;;;;;75.38;37.90;;;;;;;;;;5028853;28;20060;-38
2022/06/01 05:51:00;;;;;;;79.22;36.83;;;;;;;;;;5038647;28;20116;-37
2022/06/01 05:53:25;;;;;;;75.35;35.60;;;;;;;;;;5053017;28;20074;-38
2022/06/01 05:55:51;;;;;;;73.25;36.05;;;;;;;;;;5036541;28;20024;-38
2022/06/01 05:58:17;;;;;;;69.20;34.00;;;;;;;;;;5023757;28;20029;-40
2022/06/01 06:00:44;;;;;;;72.70;35.10;;;;;;;;;;5019797;28;20034;-39
2022/06/01 06:03:09;;;;;;;71.38;36.80;;;;;;;;;;5026438;28;20077;-38
2022/06/01 06:08:19;;;;;;;67.78;33.80;;;;;;;;;;5028510;28;20032;-39
2022/06/01 06:10:44;;;;;;;61.80;34.17;;;;;;;;;;5011272;28;20021;-39
2022/06/01 06:13:10;;;;;;;60.63;33.55;;;;;;;;;;5031822;28;20044;-39
2022/06/01 06:15:35;;;;;;;63.20;31.90;;;;;;;;;;5036157;28;20021;-40
2022/06/01 06:18:00;;;;;;;67.90;34.00;;;;;;;;;;5032671;28;20116;-39
2022/06/01 06:20:26;;;;;;;63.97;32.08;;;;;;;;;;5030916;28;20524;-40
2022/06/01 06:22:51;;;;;;;60.10;32.65;;;;;;;;;;5031279;28;20037;-39
2022/06/01 06:25:16;;;;;;;58.90;30.42;;;;;;;;;;5032368;28;20047;-39
2022/06/01 06:27:42;;;;;;;56.92;31.30;;;;;;;;;;5032402;28;20456;-39
2022/06/01 06:30:08;;;;;;;60.83;30.00;;;;;;;;;;5030436;28;20028;-38
2022/06/01 06:32:33;;;;;;;55.97;28.85;;;;;;;;;;5032476;28;20022;-38
2022/06/01 06:34:59;;;;;;;47.70;27.75;;;;;;;;;;5032522;28;20448;-38
2022/06/01 06:37:24;;;;;;;55.55;29.35;;;;;;;;;;5031088;28;20013;-38
2022/06/01 06:39:49;;;;;;;45.30;26.70;;;;;;;;;;5030587;28;20017;-40
2022/06/01 06:42:15;;;;;;;46.88;25.98;;;;;;;;;;5030780;28;20061;-38
2022/06/01 06:44:40;;;;;;;59.20;32.67;;;;;;;;;;5030855;28;20025;-39
2022/06/01 06:47:06;;;;;;;60.10;32.22;;;;;;;;;;5039346;28;20246;-38
2022/06/01 06:49:31;;;;;;;58.80;34.90;;;;;;;;;;5028530;28;20032;-39
2022/06/01 06:51:56;;;;;;;61.97;34.33;;;;;;;;;;5019964;28;20036;-38
2022/06/01 06:54:22;;;;;;;61.25;34.55;;;;;;;;;;5024815;28;20033;-39
2022/06/01 06:56:47;;;;;;;53.13;30.58;;;;;;;;;;5027538;28;20119;-39
2022/06/01 06:59:15;;;;;;;59.08;35.03;;;;;;;;;;5031623;28;20113;-43
2022/06/01 07:01:41;;;;;;;59.85;30.45;;;;;;;;;;5033692;28;20864;-39
2022/06/01 07:04:06;;;;;;;61.85;35.10;;;;;;;;;;5048448;28;20028;-40
2022/06/01 07:06:31;;;;;;;54.67;32.75;;;;;;;;;;5036218;28;20021;-39
2022/06/01 07:08:57;;;;;;;50.97;32.45;;;;;;;;;;5049497;28;20068;-40
2022/06/01 07:11:23;;;;;;;45.38;27.42;;;;;;;;;;5049493;28;20025;-40
2022/06/01 07:13:50;;;;;;;42.75;27.13;;;;;;;;;;5027503;28;20045;-40
2022/06/01 07:16:18;;;;;;;39.45;24.10;;;;;;;;;;5031037;28;20076;-41
2022/06/01 07:18:45;;;;;;;45.05;29.42;;;;;;;;;;5021125;28;20056;-39
2022/06/01 07:21:10;;;;;;;52.65;31.40;;;;;;;;;;5028915;28;20032;-39
2022/06/01 07:23:37;;;;;;;45.10;26.90;;;;;;;;;;5032661;28;20033;-40
2022/06/01 07:26:03;;;;;;;42.40;25.75;;;;;;;;;;5054981;28;20392;-39
2022/06/01 07:28:28;;;;;;;36.72;22.55;;;;;;;;;;5055536;28;20435;-41
2022/06/01 07:30:56;;;;;;;38.37;23.10;;;;;;;;;;5054420;28;20052;-40
2022/06/01 07:33:23;;;;;;;35.40;21.80;;;;;;;;;;5054352;28;20266;-39
2022/06/01 07:35:48;;;;;;;31.35;19.38;;;;;;;;;;5054077;28;20495;-40
2022/06/01 07:43:54;;;;;;;28.45;20.15;;;;;;;;;;5043193;28;20091;-39
2022/06/01 07:46:20;;;;;;;26.07;16.83;;;;;;;;;;5025067;28;20021;-39
2022/06/01 07:48:46;;;;;;;24.63;14.85;;;;;;;;;;5029166;28;20729;-40
2022/06/01 07:51:12;;;;;;;24.50;15.35;;;;;;;;;;5027633;28;20025;-40
2022/06/01 07:53:38;;;;;;;24.70;16.10;;;;;;;;;;5055242;28;20147;-41
2022/06/01 07:56:03;;;;;;;24.60;15.32;;;;;;;;;;5044723;28;20029;-40
2022/06/01 07:58:29;;;;;;;25.20;14.52;;;;;;;;;;5022302;28;20381;-41
2022/06/01 08:00:54;;;;;;;17.88;11.30;;;;;;;;;;5038418;28;20100;-40
2022/06/01 08:03:20;;;;;;;18.48;11.63;;;;;;;;;;5036000;28;20120;-40
2022/06/01 08:05:45;;;;;;;16.17;11.18;;;;;;;;;;5026068;28;20468;-40
2022/06/01 08:08:11;;;;;;;19.92;11.25;;;;;;;;;;5027615;28;20009;-41
2022/06/01 08:10:37;;;;;;;19.67;13.15;;;;;;;;;;5032113;28;20515;-40
2022/06/01 08:13:09;;;;;;;19.55;12.32;;;;;;;;;;5025781;28;20029;-40
2022/06/01 08:15:42;;;;;;;16.58;11.90;;;;;;;;;;5025614;28;20022;-40
2022/06/01 08:18:08;;;;;;;17.98;11.50;;;;;;;;;;5022717;28;20121;-40
2022/06/01 08:20:33;;;;;;;17.25;11.70;;;;;;;;;;5032027;28;20040;-41
2022/06/01 08:23:00;;;;;;;18.58;11.68;;;;;;;;;;5044162;28;20033;-41
2022/06/01 08:25:26;;;;;;;18.70;12.02;;;;;;;;;;5037412;28;20122;-40
2022/06/01 08:27:51;;;;;;;15.73;11.00;;;;;;;;;;5034718;28;20404;-40
2022/06/01 08:30:17;;;;;;;14.85;9.85;;;;;;;;;;5034008;28;20030;-41
2022/06/01 08:32:43;;;;;;;13.45;9.15;;;;;;;;;;5034203;28;20032;-40
2022/06/01 08:35:10;;;;;;;15.18;11.10;;;;;;;;;;5034239;28;20022;-40
2022/06/01 08:37:35;;;;;;;21.80;14.13;;;;;;;;;;5040218;28;20385;-40
2022/06/01 08:40:01;;;;;;;19.25;12.35;;;;;;;;;;5053828;28;20029;-40
2022/06/01 08:42:27;;;;;;;19.67;12.77;;;;;;;;;;5052438;28;20460;-40
2022/06/01 08:44:54;;;;;;;21.92;13.43;;;;;;;;;;5036033;28;20131;-40
2022/06/01 08:47:26;;;;;;;21.92;14.55;;;;;;;;;;5033059;28;20025;-40
2022/06/01 08:49:51;;;;;;;17.60;13.18;;;;;;;;;;5033770;28;20021;-40
2022/06/01 08:52:17;;;;;;;21.73;13.93;;;;;;;;;;5032458;28;20381;-40
2022/06/01 08:54:43;;;;;;;16.70;12.60;;;;;;;;;;5032186;28;20029;-40
2022/06/01 08:57:12;;;;;;;22.10;13.20;;;;;;;;;;5019992;28;20141;-41
2022/06/01 08:59:37;;;;;;;;;;;;;;;;;;5026522;28;20121;-40
2022/06/01 09:02:21;;;;;;;16.10;11.97;;;;;;;;;;5040509;28;20447;-39
2022/06/01 09:04:46;;;;;;;21.00;13.70;;;;;;;;;;5031140;28;20266;-40
2022/06/01 09:07:37;;;;;;;21.30;13.68;;;;;;;;;;5021620;28;20025;-39
2022/06/01 09:10:05;;;;;;;16.88;12.10;;;;;;;;;;5035825;28;20021;-39
2022/06/01 09:12:32;;;;;;;24.55;13.45;;;;;;;;;;5042251;28;20049;-39
2022/06/01 09:14:58;;;;;;;23.25;13.13;;;;;;;;;;5037265;28;20044;-39
2022/06/01 09:17:24;;;;;;;17.63;12.57;;;;;;;;;;5052023;28;20106;-39
2022/06/01 09:22:37;;;;;;;17.88;12.80;;;;;;;;;;5053468;28;20511;-39
2022/06/01 09:25:13;;;;;;;18.13;12.40;;;;;;;;;;5053952;28;20095;-40
2022/06/01 09:27:40;;;;;;;18.05;12.20;;;;;;;;;;5051872;28;20609;-40
2022/06/01 09:30:18;;;;;;;20.42;12.23;;;;;;;;;;5051038;28;20031;-41
2022/06/01 09:32:57;;;;;;;17.60;12.07;;;;;;;;;;5052923;28;20025;-40
2022/06/01 09:35:27;;;;;;;14.65;9.88;;;;;;;;;;5052001;28;20056;-40
2022/06/01 09:37:52;;;;;;;16.25;9.77;;;;;;;;;;5046983;28;20029;-40
2022/06/01 09:40:20;;;;;;;12.30;8.35;;;;;;;;;;5023551;28;20029;-42
2022/06/01 09:42:48;;;;;;;14.43;9.00;;;;;;;;;;5029583;28;20061;-40
2022/06/01 09:45:25;;;;;;;14.68;8.25;;;;;;;;;;5015849;28;20037;-40
2022/06/01 09:47:51;;;;;;;10.40;7.63;;;;;;;;;;5022089;28;20022;-40
2022/06/01 09:50:35;;;;;;;11.75;7.00;;;;;;;;;;5029284;28;20024;-40
2022/06/01 09:53:11;;;;;;;10.02;6.13;;;;;;;;;;5032733;28;20025;-39
2022/06/01 09:55:49;;;;;;;12.75;6.82;;;;;;;;;;5032920;28;20456;-39
2022/06/01 10:06:05;;;;;;;8.35;6.00;;;;;;;;;;5029094;28;20041;-40
2022/06/01 10:06:36;;;;;;;5.28;4.50;;;;;;;;;;5032680;28;20393;-40
2022/06/01 10:09:08;;;;;;;7.33;4.23;;;;;;;;;;5024785;28;20030;-40
2022/06/01 10:11:35;;;;;;;6.15;3.95;;;;;;;;;;5042664;28;20281;-39
2022/06/01 10:14:03;;;;;;;4.93;3.72;;;;;;;;;;5034865;28;20048;-39
2022/06/01 10:16:38;;;;;;;6.72;3.08;;;;;;;;;;5041573;28;20383;-40
2022/06/01 10:19:05;;;;;;;7.38;3.72;;;;;;;;;;5050853;28;20132;-40
2022/06/01 10:21:48;;;;;;;4.18;3.40;;;;;;;;;;5029998;28;20028;-40
2022/06/01 10:24:26;;;;;;;4.30;3.05;;;;;;;;;;5031185;28;20506;-39
2022/06/01 10:26:55;;;;;;;3.47;3.13;;;;;;;;;;5032440;28;20030;-40
2022/06/01 10:29:24;;;;;;;4.35;3.35;;;;;;;;;;5030938;28;20387;-41
2022/06/01 10:31:53;;;;;;;4.63;3.40;;;;;;;;;;5031865;28;20023;-41
2022/06/01 10:34:24;;;;;;;4.30;3.35;;;;;;;;;;5018053;28;20026;-39
2022/06/01 10:37:09;;;;;;;5.63;3.53;;;;;;;;;;5030861;28;20468;-42
2022/06/01 10:39:35;;;;;;;3.60;2.97;;;;;;;;;;5030749;28;20022;-41
2022/06/01 10:42:07;;;;;;;4.68;3.17;;;;;;;;;;5031574;28;20156;-39
2022/06/01 10:44:38;;;;;;;7.97;3.47;;;;;;;;;;5026853;28;20047;-40
2022/06/01 10:47:11;;;;;;;5.05;3.30;;;;;;;;;;5026043;28;20086;-39
2022/06/01 10:49:46;;;;;;;5.10;3.20;;;;;;;;;;5021047;28;20088;-39
2022/06/01 10:52:22;;;;;;;4.50;2.20;;;;;;;;;;5034984;28;20021;-39
2022/06/01 10:54:48;;;;;;;3.75;2.42;;;;;;;;;;5051114;28;20442;-39
2022/06/01 10:57:16;;;;;;;3.00;2.70;;;;;;;;;;5052402;28;20107;-38
2022/06/01 10:59:41;;;;;;;;;;;;;;;;;;5053479;28;20075;-39
2022/06/01 11:02:17;;;;;;;7.63;2.80;;;;;;;;;;5053105;28;19921;-38
2022/06/01 11:05:00;;;;;;;3.58;2.20;;;;;;;;;;5056396;28;20025;-39
2022/06/01 11:07:44;;;;;;;3.65;2.58;;;;;;;;;;5056282;28;20027;-38
2022/06/01 11:10:19;;;;;;;7.43;3.28;;;;;;;;;;5055184;28;20036;-39
2022/06/01 11:13:03;;;;;;;3.53;3.22;;;;;;;;;;5054710;28;20024;-39
2022/06/01 11:15:47;;;;;;;14.07;3.50;;;;;;;;;;5036256;28;20013;-39
2022/06/01 11:18:31;;;;;;;3.72;2.70;;;;;;;;;;5036055;28;20029;-39
2022/06/01 11:21:04;;;;;;;6.63;3.00;;;;;;;;;;5035145;28;20026;-40
2022/06/01 11:23:45;;;;;;;4.32;3.00;;;;;;;;;;5025778;28;20037;-40
2022/06/01 11:26:13;;;;;;;5.50;3.95;;;;;;;;;;5029217;28;20100;-40
2022/06/01 11:28:47;;;;;;;3.47;3.17;;;;;;;;;;5035566;28;20030;-41
2022/06/01 11:31:20;;;;;;;6.30;3.20;;;;;;;;;;5034857;28;20113;-41
2022/06/01 11:34:05;;;;;;;6.63;3.05;;;;;;;;;;5035864;28;20025;-40
2022/06/01 11:36:37;;;;;;;4.22;3.40;;;;;;;;;;5036110;28;20499;-40
2022/06/01 11:39:14;;;;;;;9.02;2.67;;;;;;;;;;5034176;28;20068;-40
2022/06/01 11:41:41;;;;;;;2.72;2.28;;;;;;;;;;5034645;28;20053;-39
2022/06/01 11:44:11;;;;;;;6.05;2.90;;;;;;;;;;5027882;28;20084;-40
2022/06/01 11:46:42;;;;;;;3.03;2.70;;;;;;;;;;5050126;28;20024;-39
2022/06/01 11:49:25;;;;;;;4.32;2.60;;;;;;;;;;5053950;28;20029;-40
2022/06/01 11:51:51;;;;;;;2.10;1.90;;;;;;;;;;5054718;28;20108;-40
2022/06/01 11:54:33;;;;;;;10.85;2.97;;;;;;;;;;5053814;28;20115;-40
2022/06/01 11:56:58;;;;;;;4.25;2.00;;;;;;;;;;5055390;28;20040;-41
2022/06/01 11:59:29;;;;;;;2.33;1.43;;;;;;;;;;5035770;28;20010;-40
2022/06/01 12:01:58;;;;;;;2.28;1.60;;;;;;;;;;5054557;28;20036;-41
2022/06/01 12:04:36;;;;;;;2.15;1.60;;;;;;;;;;5051052;28;20071;-42
2022/06/01 12:07:16;;;;;;;3.55;1.83;;;;;;;;;;5055080;28;20056;-41
2022/06/01 12:09:49;;;;;;;3.40;1.88;;;;;;;;;;5052853;28;20028;-41
2022/06/01 12:12:26;;;;;;;2.67;2.40;;;;;;;;;;5054499;28;20504;-41
2022/06/01 12:15:04;;;;;;;3.80;3.13;;;;;;;;;;5046909;28;20014;-41
2022/06/01 12:17:31;;;;;;;7.50;3.05;;;;;;;;;;5033855;28;20037;-40
2022/06/01 12:20:17;;;;;;;3.17;2.53;;;;;;;;;;5033244;28;20408;-40
2022/06/01 12:28:51;;;;;;;7.45;2.70;;;;;;;;;;5034515;28;20071;-40
2022/06/01 12:31:27;;;;;;;3.97;2.15;;;;;;;;;;5032513;28;20109;-40
2022/06/01 12:33:59;;;;;;;4.75;2.90;;;;;;;;;;5033040;28;20025;-41
2022/06/01 12:36:24;;;;;;;3.33;2.40;;;;;;;;;;5033428;28;20029;-41
2022/06/01 12:38:50;;;;;;;3.92;2.78;;;;;;;;;;5033196;28;20021;-40
2022/06/01 12:41:18;;;;;;;3.38;2.20;;;;;;;;;;5033418;28;20022;-40
2022/06/01 12:43:49;;;;;;;5.32;2.63;;;;;;;;;;5034263;28;20034;-39
2022/06/01 12:46:19;;;;;;;3.22;2.47;;;;;;;;;;5032992;28;20025;-40
2022/06/01 12:48:44;;;;;;;5.72;3.13;;;;;;;;;;5032853;28;20025;-42
2022/06/01 12:51:10;;;;;;;3.92;2.72;;;;;;;;;;5032377;28;20116;-41
2022/06/01 12:53:44;;;;;;;2.92;2.33;;;;;;;;;;5033104;28;20051;-39
2022/06/01 12:56:14;;;;;;;5.00;2.83;;;;;;;;;;5032875;28;20021;-39
2022/06/01 12:58:42;;;;;;;5.47;2.53;;;;;;;;;;5033955;28;20026;-42
2022/06/01 13:01:08;;;;;;;3.72;2.75;;;;;;;;;;5033086;28;20101;-40
2022/06/01 13:03:33;;;;;;;5.70;3.17;;;;;;;;;;5034412;28;20575;-40
2022/06/01 13:06:00;;;;;;;6.57;3.08;;;;;;;;;;5034421;28;20028;-40
2022/06/01 13:08:28;;;;;;;3.05;2.75;;;;;;;;;;5032648;28;20021;-40
2022/06/01 13:10:54;;;;;;;3.60;3.05;;;;;;;;;;5031775;28;20068;-41
2022/06/01 13:13:23;;;;;;;4.22;2.90;;;;;;;;;;5032474;28;20088;-40
2022/06/01 13:16:07;;;;;;;4.25;3.10;;;;;;;;;;5033547;28;20029;-40
2022/06/01 13:18:43;;;;;;;4.57;2.60;;;;;;;;;;5032533;28;20064;-41
2022/06/01 13:21:15;;;;;;;4.88;2.65;;;;;;;;;;5032667;28;20112;-41
2022/06/01 13:23:52;;;;;;;5.38;3.17;;;;;;;;;;5032799;28;20052;-41
2022/06/01 13:26:25;;;;;;;8.68;3.80;;;;;;;;;;5026678;28;20034;-41
2022/06/01 13:28:50;;;;;;;6.35;3.03;;;;;;;;;;5026499;28;20029;-41
2022/06/01 13:31:16;;;;;;;6.43;3.63;;;;;;;;;;5026278;28;20029;-42
2022/06/01 13:33:43;;;;;;;5.95;3.05;;;;;;;;;;5024573;28;20021;-40
2022/06/01 13:36:24;;;;;;;3.20;2.60;;;;;;;;;;5021766;28;20017;-41
2022/06/01 13:38:50;;;;;;;4.20;3.13;;;;;;;;;;5026833;28;20468;-41
2022/06/01 13:41:25;;;;;;;2.88;2.58;;;;;;;;;;5052684;28;20032;-41
2022/06/01 13:43:51;;;;;;;5.05;2.83;;;;;;;;;;5025849;28;20036;-40
2022/06/01 13:46:35;;;;;;;5.00;2.45;;;;;;;;;;5046522;28;20022;-40
2022/06/01 13:49:03;;;;;;;4.65;2.78;;;;;;;;;;5018976;28;20017;-41
2022/06/01 13:51:40;;;;;;;4.05;2.90;;;;;;;;;;5043549;28;20021;-41
2022/06/01 13:54:24;;;;;;;3.42;2.20;;;;;;;;;;5053034;28;20531;-40
2022/06/01 13:56:49;;;;;;;4.00;2.15;;;;;;;;;;5031304;28;20485;-40
2022/06/01 13:59:30;;;;;;;4.30;2.63;;;;;;;;;;5052817;28;20036;-39
2022/06/01 14:02:01;;;;;;;2.88;2.55;;;;;;;;;;5052539;28;20435;-39
2022/06/01 14:04:34;;;;;;;4.35;2.15;;;;;;;;;;5053134;28;20189;-40
2022/06/01 14:07:09;;;;;;;2.78;2.20;;;;;;;;;;5052596;28;20107;-40
2022/06/01 14:09:40;;;;;;;3.42;2.22;;;;;;;;;;5050945;28;20059;-40
2022/06/01 14:12:06;;;;;;;3.80;2.40;;;;;;;;;;5051160;28;20496;-40
2022/06/01 14:14:35;;;;;;;2.40;2.05;;;;;;;;;;5030421;28;20059;-40
2022/06/01 14:17:01;;;;;;;2.33;2.13;;;;;;;;;;5048403;28;20083;-40
2022/06/01 14:19:26;;;;;;;5.07;1.92;;;;;;;;;;5052132;28;20017;-41
2022/06/01 14:21:51;;;;;;;3.13;1.90;;;;;;;;;;5040711;28;20026;-41
2022/06/01 14:24:17;;;;;;;5.03;2.03;;;;;;;;;;5023689;28;20520;-40
2022/06/01 14:29:27;;;;;;;2.25;1.55;;;;;;;;;;5029146;28;20051;-43
2022/06/01 14:31:57;;;;;;;19.20;2.92;;;;;;;;;;5028367;28;20461;-40
2022/06/01 14:34:23;;;;;;;3.05;1.70;;;;;;;;;;5030922;28;20104;-41
2022/06/01 14:36:49;;;;;;;1.88;1.60;;;;;;;;;;5032585;28;20525;-41
2022/06/01 14:39:15;;;;;;;5.78;1.77;;;;;;;;;;5030703;28;20028;-41
2022/06/01 14:41:42;;;;;;;1.85;1.58;;;;;;;;;;5031837;28;20489;-40
2022/06/01 14:44:11;;;;;;;2.60;1.40;;;;;;;;;;5031073;28;20061;-40
2022/06/01 14:46:36;;;;;;;1.48;1.25;;;;;;;;;;5032293;28;20033;-41
2022/06/01 14:49:01;;;;;;;1.95;1.33;;;;;;;;;;5030649;28;20019;-41
2022/06/01 14:51:28;;;;;;;2.20;1.70;;;;;;;;;;5030724;28;20030;-40
2022/06/01 14:53:54;;;;;;;2.65;1.20;;;;;;;;;;5030832;28;20041;-41
2022/06/01 14:56:20;;;;;;;1.92;1.50;;;;;;;;;;5030663;28;20353;-40
2022/06/01 14:58:46;;;;;;;2.33;1.30;;;;;;;;;;5032062;28;20025;-41
2022/06/01 15:01:13;;;;;;;3.22;1.50;;;;;;;;;;5030574;28;20473;-41
2022/06/01 15:03:41;;;;;;;2.70;1.58;;;;;;;;;;5023345;28;20061;-41